sensor_id;sensor_type;location;lat;lon;timestamp;P1;durP1;ratioP1;P2;durP2;ratioP2
15958;SDS011;8078;47.822;9.402;2022-11-20T00:01:46;36.00;;;13.50;;
15958;SDS011;8078;47.822;9.402;2022-11-20T00:04:11;23.47;;;11.93;;
15958;SDS011;8078;47.822;9.402;2022-11-20T00:06:37;19.77;;;11.60;;
15958;SDS011;8078;47.822;9.402;2022-11-20T00:09:03;123.30;;;17.90;;
15958;SDS011;8078;47.822;9.402;2022-11-20T00:11:30;49.23;;;16.07;;
15958;SDS011;8078;47.822;9.402;2022-11-20T00:13:57;172.33;;;22.33;;
15958;SDS011;8078;47.822;9.402;2022-11-20T00:16:25;355.77;;;33.90;;
15958;SDS011;8078;47.822;9.402;2022-11-20T00:18:52;31.40;;;13.80;;
15958;SDS011;8078;47.822;9.402;2022-11-20T00:21:23;25.43;;;12.33;;
15958;SDS011;8078;47.822;9.402;2022-11-20T00:23:50;45.13;;;14.43;;
15958;SDS011;8078;47.822;9.402;2022-11-20T00:26:18;72.60;;;16.20;;
15958;SDS011;8078;47.822;9.402;2022-11-20T00:28:49;23.40;;;12.53;;
15958;SDS011;8078;47.822;9.402;2022-11-20T00:31:17;21.80;;;12.27;;
15958;SDS011;8078;47.822;9.402;2022-11-20T00:33:43;24.10;;;12.13;;
15958;SDS011;8078;47.822;9.402;2022-11-20T00:36:10;247.27;;;29.13;;
15958;SDS011;8078;47.822;9.402;2022-11-20T00:38:38;331.47;;;30.63;;
15958;SDS011;8078;47.822;9.402;2022-11-20T00:41:06;196.10;;;23.83;;
15958;SDS011;8078;47.822;9.402;2022-11-20T00:43:33;683.93;;;58.50;;
15958;SDS011;8078;47.822;9.402;2022-11-20T00:45:59;441.37;;;36.67;;
15958;SDS011;8078;47.822;9.402;2022-11-20T00:48:26;553.53;;;43.77;;
15958;SDS011;8078;47.822;9.402;2022-11-20T00:50:52;353.33;;;27.30;;
15958;SDS011;8078;47.822;9.402;2022-11-20T00:53:18;566.03;;;45.97;;
15958;SDS011;8078;47.822;9.402;2022-11-20T00:55:52;927.67;;;77.13;;
15958;SDS011;8078;47.822;9.402;2022-11-20T00:58:18;858.73;;;72.40;;
15958;SDS011;8078;47.822;9.402;2022-11-20T01:00:44;1218.30;;;109.70;;
15958;SDS011;8078;47.822;9.402;2022-11-20T01:03:09;871.70;;;74.97;;
15958;SDS011;8078;47.822;9.402;2022-11-20T01:05:35;1082.73;;;89.33;;
15958;SDS011;8078;47.822;9.402;2022-11-20T01:08:01;929.97;;;82.03;;
15958;SDS011;8078;47.822;9.402;2022-11-20T01:10:26;810.47;;;66.17;;
15958;SDS011;8078;47.822;9.402;2022-11-20T01:12:52;780.00;;;72.33;;
15958;SDS011;8078;47.822;9.402;2022-11-20T01:15:37;201.73;;;22.47;;
15958;SDS011;8078;47.822;9.402;2022-11-20T01:18:03;549.90;;;48.80;;
15958;SDS011;8078;47.822;9.402;2022-11-20T01:20:28;585.43;;;47.07;;
15958;SDS011;8078;47.822;9.402;2022-11-20T01:22:54;444.73;;;35.63;;
15958;SDS011;8078;47.822;9.402;2022-11-20T01:25:19;379.03;;;34.10;;
15958;SDS011;8078;47.822;9.402;2022-11-20T01:27:45;431.40;;;32.97;;
15958;SDS011;8078;47.822;9.402;2022-11-20T01:30:11;829.30;;;66.57;;
15958;SDS011;8078;47.822;9.402;2022-11-20T01:32:37;928.50;;;72.17;;
15958;SDS011;8078;47.822;9.402;2022-11-20T01:35:02;1151.60;;;100.30;;
15958;SDS011;8078;47.822;9.402;2022-11-20T01:37:28;1265.93;;;104.03;;
15958;SDS011;8078;47.822;9.402;2022-11-20T01:39:54;1133.43;;;102.20;;
15958;SDS011;8078;47.822;9.402;2022-11-20T01:42:19;1132.03;;;84.67;;
15958;SDS011;8078;47.822;9.402;2022-11-20T01:45:42;1314.00;;;109.77;;
15958;SDS011;8078;47.822;9.402;2022-11-20T01:48:07;1239.73;;;102.43;;
15958;SDS011;8078;47.822;9.402;2022-11-20T01:50:33;1182.60;;;99.97;;
15958;SDS011;8078;47.822;9.402;2022-11-20T01:53:00;1298.20;;;105.40;;
15958;SDS011;8078;47.822;9.402;2022-11-20T01:55:31;920.87;;;82.27;;
15958;SDS011;8078;47.822;9.402;2022-11-20T01:57:59;1087.97;;;89.40;;
15958;SDS011;8078;47.822;9.402;2022-11-20T02:00:27;871.87;;;70.67;;
15958;SDS011;8078;47.822;9.402;2022-11-20T02:03:00;711.40;;;57.37;;
15958;SDS011;8078;47.822;9.402;2022-11-20T02:05:46;930.87;;;74.87;;
15958;SDS011;8078;47.822;9.402;2022-11-20T02:08:19;1031.70;;;86.53;;
15958;SDS011;8078;47.822;9.402;2022-11-20T02:10:44;1047.07;;;83.63;;
15958;SDS011;8078;47.822;9.402;2022-11-20T02:13:10;1073.87;;;92.80;;
15958;SDS011;8078;47.822;9.402;2022-11-20T02:15:54;956.67;;;69.90;;
15958;SDS011;8078;47.822;9.402;2022-11-20T02:18:20;716.23;;;54.73;;
15958;SDS011;8078;47.822;9.402;2022-11-20T02:20:47;1052.60;;;96.37;;
15958;SDS011;8078;47.822;9.402;2022-11-20T02:23:21;415.83;;;42.07;;
15958;SDS011;8078;47.822;9.402;2022-11-20T02:26:00;844.97;;;67.67;;
15958;SDS011;8078;47.822;9.402;2022-11-20T02:28:28;665.90;;;57.90;;
15958;SDS011;8078;47.822;9.402;2022-11-20T02:30:54;1196.97;;;106.13;;
15958;SDS011;8078;47.822;9.402;2022-11-20T02:33:19;1070.10;;;90.27;;
15958;SDS011;8078;47.822;9.402;2022-11-20T02:35:45;742.17;;;65.33;;
15958;SDS011;8078;47.822;9.402;2022-11-20T02:38:11;1013.17;;;90.23;;
15958;SDS011;8078;47.822;9.402;2022-11-20T02:40:38;917.70;;;81.83;;
15958;SDS011;8078;47.822;9.402;2022-11-20T02:43:04;755.90;;;69.33;;
15958;SDS011;8078;47.822;9.402;2022-11-20T02:45:29;821.50;;;70.23;;
15958;SDS011;8078;47.822;9.402;2022-11-20T02:47:55;356.97;;;34.87;;
15958;SDS011;8078;47.822;9.402;2022-11-20T02:50:21;1172.90;;;108.60;;
15958;SDS011;8078;47.822;9.402;2022-11-20T02:52:46;1128.13;;;104.27;;
15958;SDS011;8078;47.822;9.402;2022-11-20T02:55:12;791.40;;;70.33;;
15958;SDS011;8078;47.822;9.402;2022-11-20T02:57:37;1261.27;;;110.67;;
15958;SDS011;8078;47.822;9.402;2022-11-20T03:00:03;970.07;;;86.17;;
15958;SDS011;8078;47.822;9.402;2022-11-20T03:02:30;925.07;;;84.50;;
15958;SDS011;8078;47.822;9.402;2022-11-20T03:04:56;343.20;;;39.70;;
15958;SDS011;8078;47.822;9.402;2022-11-20T03:07:22;564.30;;;56.57;;
15958;SDS011;8078;47.822;9.402;2022-11-20T03:09:47;496.60;;;50.13;;
15958;SDS011;8078;47.822;9.402;2022-11-20T03:12:13;926.17;;;79.50;;
15958;SDS011;8078;47.822;9.402;2022-11-20T03:14:39;589.87;;;54.13;;
15958;SDS011;8078;47.822;9.402;2022-11-20T03:17:04;418.03;;;50.00;;
15958;SDS011;8078;47.822;9.402;2022-11-20T03:19:30;718.93;;;68.97;;
15958;SDS011;8078;47.822;9.402;2022-11-20T03:21:56;58.20;;;24.57;;
15958;SDS011;8078;47.822;9.402;2022-11-20T03:24:21;67.63;;;21.07;;
15958;SDS011;8078;47.822;9.402;2022-11-20T03:26:47;214.47;;;32.83;;
15958;SDS011;8078;47.822;9.402;2022-11-20T03:29:12;72.40;;;23.13;;
15958;SDS011;8078;47.822;9.402;2022-11-20T03:31:39;47.80;;;18.50;;
15958;SDS011;8078;47.822;9.402;2022-11-20T03:34:05;272.43;;;36.20;;
15958;SDS011;8078;47.822;9.402;2022-11-20T03:36:32;46.47;;;19.33;;
15958;SDS011;8078;47.822;9.402;2022-11-20T03:38:58;492.53;;;50.53;;
15958;SDS011;8078;47.822;9.402;2022-11-20T03:41:25;638.97;;;59.30;;
15958;SDS011;8078;47.822;9.402;2022-11-20T03:43:53;661.17;;;64.93;;
15958;SDS011;8078;47.822;9.402;2022-11-20T03:46:20;748.57;;;65.20;;
15958;SDS011;8078;47.822;9.402;2022-11-20T03:48:46;310.60;;;35.07;;
15958;SDS011;8078;47.822;9.402;2022-11-20T03:51:12;88.70;;;22.13;;
15958;SDS011;8078;47.822;9.402;2022-11-20T03:53:39;185.03;;;27.90;;
15958;SDS011;8078;47.822;9.402;2022-11-20T03:56:05;134.53;;;25.40;;
15958;SDS011;8078;47.822;9.402;2022-11-20T03:58:32;156.23;;;23.27;;
15958;SDS011;8078;47.822;9.402;2022-11-20T04:01:03;878.53;;;78.50;;
15958;SDS011;8078;47.822;9.402;2022-11-20T04:03:30;309.07;;;30.87;;
15958;SDS011;8078;47.822;9.402;2022-11-20T04:05:55;208.07;;;28.23;;
15958;SDS011;8078;47.822;9.402;2022-11-20T04:08:28;357.47;;;36.47;;
15958;SDS011;8078;47.822;9.402;2022-11-20T04:10:53;39.77;;;17.47;;
15958;SDS011;8078;47.822;9.402;2022-11-20T04:13:19;55.10;;;19.60;;
15958;SDS011;8078;47.822;9.402;2022-11-20T04:15:44;277.57;;;29.10;;
15958;SDS011;8078;47.822;9.402;2022-11-20T04:18:10;214.53;;;28.47;;
15958;SDS011;8078;47.822;9.402;2022-11-20T04:20:35;105.73;;;20.40;;
15958;SDS011;8078;47.822;9.402;2022-11-20T04:23:01;34.53;;;18.33;;
15958;SDS011;8078;47.822;9.402;2022-11-20T04:25:26;44.23;;;18.73;;
15958;SDS011;8078;47.822;9.402;2022-11-20T04:27:52;39.03;;;17.23;;
15958;SDS011;8078;47.822;9.402;2022-11-20T04:30:17;41.87;;;17.60;;
15958;SDS011;8078;47.822;9.402;2022-11-20T04:32:43;37.37;;;19.23;;
15958;SDS011;8078;47.822;9.402;2022-11-20T04:35:09;55.07;;;18.00;;
15958;SDS011;8078;47.822;9.402;2022-11-20T04:37:34;32.13;;;14.47;;
15958;SDS011;8078;47.822;9.402;2022-11-20T04:40:00;40.77;;;16.57;;
15958;SDS011;8078;47.822;9.402;2022-11-20T04:42:25;44.30;;;20.23;;
15958;SDS011;8078;47.822;9.402;2022-11-20T04:44:54;488.83;;;42.43;;
15958;SDS011;8078;47.822;9.402;2022-11-20T04:47:20;478.37;;;46.23;;
15958;SDS011;8078;47.822;9.402;2022-11-20T04:49:46;505.53;;;50.53;;
15958;SDS011;8078;47.822;9.402;2022-11-20T04:52:11;256.50;;;31.17;;
15958;SDS011;8078;47.822;9.402;2022-11-20T04:54:37;48.67;;;20.07;;
15958;SDS011;8078;47.822;9.402;2022-11-20T04:57:03;256.43;;;29.43;;
15958;SDS011;8078;47.822;9.402;2022-11-20T04:59:28;818.17;;;71.30;;
15958;SDS011;8078;47.822;9.402;2022-11-20T05:01:54;140.20;;;23.77;;
15958;SDS011;8078;47.822;9.402;2022-11-20T05:04:19;333.53;;;35.37;;
15958;SDS011;8078;47.822;9.402;2022-11-20T05:06:45;341.20;;;37.17;;
15958;SDS011;8078;47.822;9.402;2022-11-20T05:09:11;558.13;;;54.50;;
15958;SDS011;8078;47.822;9.402;2022-11-20T05:11:37;655.97;;;58.03;;
15958;SDS011;8078;47.822;9.402;2022-11-20T05:14:02;229.10;;;30.03;;
15958;SDS011;8078;47.822;9.402;2022-11-20T05:16:28;114.63;;;22.97;;
15958;SDS011;8078;47.822;9.402;2022-11-20T05:18:54;43.20;;;18.17;;
15958;SDS011;8078;47.822;9.402;2022-11-20T05:21:20;59.37;;;20.03;;
15958;SDS011;8078;47.822;9.402;2022-11-20T05:23:46;263.27;;;32.23;;
15958;SDS011;8078;47.822;9.402;2022-11-20T05:26:13;42.57;;;19.80;;
15958;SDS011;8078;47.822;9.402;2022-11-20T05:28:48;38.23;;;19.87;;
15958;SDS011;8078;47.822;9.402;2022-11-20T05:31:15;39.57;;;20.63;;
15958;SDS011;8078;47.822;9.402;2022-11-20T05:33:45;36.10;;;17.67;;
15958;SDS011;8078;47.822;9.402;2022-11-20T05:36:12;37.40;;;17.67;;
15958;SDS011;8078;47.822;9.402;2022-11-20T05:38:38;35.57;;;17.60;;
15958;SDS011;8078;47.822;9.402;2022-11-20T05:43:37;28.97;;;15.40;;
15958;SDS011;8078;47.822;9.402;2022-11-20T05:46:04;30.73;;;15.10;;
15958;SDS011;8078;47.822;9.402;2022-11-20T05:48:30;32.73;;;16.43;;
15958;SDS011;8078;47.822;9.402;2022-11-20T05:50:57;31.63;;;17.83;;
15958;SDS011;8078;47.822;9.402;2022-11-20T05:53:23;29.20;;;15.30;;
15958;SDS011;8078;47.822;9.402;2022-11-20T05:55:59;28.77;;;16.13;;
15958;SDS011;8078;47.822;9.402;2022-11-20T05:58:31;27.03;;;14.57;;
15958;SDS011;8078;47.822;9.402;2022-11-20T06:01:15;25.40;;;14.90;;
15958;SDS011;8078;47.822;9.402;2022-11-20T06:03:46;26.53;;;13.77;;
15958;SDS011;8078;47.822;9.402;2022-11-20T06:06:13;29.30;;;13.27;;
15958;SDS011;8078;47.822;9.402;2022-11-20T06:08:39;19.87;;;12.33;;
15958;SDS011;8078;47.822;9.402;2022-11-20T06:11:05;17.37;;;11.40;;
15958;SDS011;8078;47.822;9.402;2022-11-20T06:13:32;22.17;;;10.97;;
15958;SDS011;8078;47.822;9.402;2022-11-20T06:15:58;17.87;;;11.70;;
15958;SDS011;8078;47.822;9.402;2022-11-20T06:18:25;18.17;;;10.70;;
15958;SDS011;8078;47.822;9.402;2022-11-20T06:20:58;17.03;;;11.67;;
15958;SDS011;8078;47.822;9.402;2022-11-20T06:23:25;15.93;;;10.03;;
15958;SDS011;8078;47.822;9.402;2022-11-20T06:25:52;16.67;;;11.20;;
15958;SDS011;8078;47.822;9.402;2022-11-20T06:28:17;18.07;;;11.43;;
15958;SDS011;8078;47.822;9.402;2022-11-20T06:30:46;13.80;;;9.97;;
15958;SDS011;8078;47.822;9.402;2022-11-20T06:33:11;14.93;;;9.70;;
15958;SDS011;8078;47.822;9.402;2022-11-20T06:35:37;15.07;;;8.73;;
15958;SDS011;8078;47.822;9.402;2022-11-20T06:38:02;11.23;;;8.20;;
15958;SDS011;8078;47.822;9.402;2022-11-20T06:40:28;10.27;;;7.57;;
15958;SDS011;8078;47.822;9.402;2022-11-20T06:42:54;12.47;;;7.23;;
15958;SDS011;8078;47.822;9.402;2022-11-20T06:45:20;10.80;;;7.80;;
15958;SDS011;8078;47.822;9.402;2022-11-20T06:47:46;13.27;;;8.67;;
15958;SDS011;8078;47.822;9.402;2022-11-20T06:50:11;14.53;;;9.73;;
15958;SDS011;8078;47.822;9.402;2022-11-20T06:52:37;16.20;;;9.10;;
15958;SDS011;8078;47.822;9.402;2022-11-20T06:55:03;15.17;;;9.10;;
15958;SDS011;8078;47.822;9.402;2022-11-20T06:57:29;17.93;;;10.80;;
15958;SDS011;8078;47.822;9.402;2022-11-20T06:59:54;15.47;;;10.60;;
15958;SDS011;8078;47.822;9.402;2022-11-20T07:02:20;18.00;;;11.47;;
15958;SDS011;8078;47.822;9.402;2022-11-20T07:04:45;16.93;;;12.40;;
15958;SDS011;8078;47.822;9.402;2022-11-20T07:07:11;20.77;;;11.50;;
15958;SDS011;8078;47.822;9.402;2022-11-20T07:09:36;20.43;;;11.97;;
15958;SDS011;8078;47.822;9.402;2022-11-20T07:12:02;20.27;;;11.87;;
15958;SDS011;8078;47.822;9.402;2022-11-20T07:14:28;17.10;;;11.67;;
15958;SDS011;8078;47.822;9.402;2022-11-20T07:16:53;22.03;;;12.03;;
15958;SDS011;8078;47.822;9.402;2022-11-20T07:19:19;19.07;;;12.07;;
15958;SDS011;8078;47.822;9.402;2022-11-20T07:21:45;22.73;;;10.50;;
15958;SDS011;8078;47.822;9.402;2022-11-20T07:24:10;19.87;;;11.20;;
15958;SDS011;8078;47.822;9.402;2022-11-20T07:26:36;16.03;;;10.40;;
15958;SDS011;8078;47.822;9.402;2022-11-20T07:29:01;17.83;;;9.60;;
15958;SDS011;8078;47.822;9.402;2022-11-20T07:31:27;15.80;;;11.03;;
15958;SDS011;8078;47.822;9.402;2022-11-20T07:33:52;15.50;;;10.90;;
15958;SDS011;8078;47.822;9.402;2022-11-20T07:36:18;15.10;;;9.37;;
15958;SDS011;8078;47.822;9.402;2022-11-20T07:38:43;14.80;;;9.83;;
15958;SDS011;8078;47.822;9.402;2022-11-20T07:41:09;17.17;;;8.50;;
15958;SDS011;8078;47.822;9.402;2022-11-20T07:43:34;12.93;;;8.73;;
15958;SDS011;8078;47.822;9.402;2022-11-20T07:46:00;12.57;;;8.77;;
15958;SDS011;8078;47.822;9.402;2022-11-20T07:48:25;13.60;;;9.43;;
15958;SDS011;8078;47.822;9.402;2022-11-20T07:50:54;13.87;;;8.47;;
15958;SDS011;8078;47.822;9.402;2022-11-20T07:53:21;13.63;;;9.27;;
15958;SDS011;8078;47.822;9.402;2022-11-20T07:55:47;13.10;;;9.27;;
15958;SDS011;8078;47.822;9.402;2022-11-20T07:58:13;13.80;;;9.27;;
15958;SDS011;8078;47.822;9.402;2022-11-20T08:00:39;11.33;;;8.77;;
15958;SDS011;8078;47.822;9.402;2022-11-20T08:03:05;13.10;;;9.40;;
15958;SDS011;8078;47.822;9.402;2022-11-20T08:05:30;16.93;;;8.87;;
15958;SDS011;8078;47.822;9.402;2022-11-20T08:07:56;19.63;;;10.13;;
15958;SDS011;8078;47.822;9.402;2022-11-20T08:10:22;18.93;;;10.23;;
15958;SDS011;8078;47.822;9.402;2022-11-20T08:12:48;13.13;;;7.83;;
15958;SDS011;8078;47.822;9.402;2022-11-20T08:15:34;10.90;;;8.93;;
15958;SDS011;8078;47.822;9.402;2022-11-20T08:18:07;11.20;;;9.57;;
15958;SDS011;8078;47.822;9.402;2022-11-20T08:20:35;10.80;;;8.23;;
15958;SDS011;8078;47.822;9.402;2022-11-20T08:23:02;10.07;;;6.67;;
15958;SDS011;8078;47.822;9.402;2022-11-20T08:25:30;9.57;;;6.83;;
15958;SDS011;8078;47.822;9.402;2022-11-20T08:27:57;8.57;;;5.33;;
15958;SDS011;8078;47.822;9.402;2022-11-20T08:30:23;7.60;;;6.27;;
15958;SDS011;8078;47.822;9.402;2022-11-20T08:32:49;8.63;;;6.90;;
15958;SDS011;8078;47.822;9.402;2022-11-20T08:35:15;7.80;;;5.80;;
15958;SDS011;8078;47.822;9.402;2022-11-20T08:37:40;8.20;;;6.80;;
15958;SDS011;8078;47.822;9.402;2022-11-20T08:40:07;10.37;;;6.53;;
15958;SDS011;8078;47.822;9.402;2022-11-20T08:42:34;8.83;;;6.40;;
15958;SDS011;8078;47.822;9.402;2022-11-20T08:45:00;8.83;;;6.67;;
15958;SDS011;8078;47.822;9.402;2022-11-20T08:47:25;9.47;;;6.30;;
15958;SDS011;8078;47.822;9.402;2022-11-20T08:49:51;7.47;;;5.93;;
15958;SDS011;8078;47.822;9.402;2022-11-20T08:52:17;7.00;;;5.43;;
15958;SDS011;8078;47.822;9.402;2022-11-20T08:54:42;7.40;;;6.33;;
15958;SDS011;8078;47.822;9.402;2022-11-20T08:57:08;6.13;;;5.50;;
15958;SDS011;8078;47.822;9.402;2022-11-20T08:59:33;9.30;;;6.53;;
15958;SDS011;8078;47.822;9.402;2022-11-20T09:01:59;6.63;;;5.73;;
15958;SDS011;8078;47.822;9.402;2022-11-20T09:04:24;7.40;;;5.80;;
15958;SDS011;8078;47.822;9.402;2022-11-20T09:06:50;5.67;;;5.07;;
15958;SDS011;8078;47.822;9.402;2022-11-20T09:09:16;8.87;;;5.60;;
15958;SDS011;8078;47.822;9.402;2022-11-20T09:11:43;7.17;;;4.90;;
15958;SDS011;8078;47.822;9.402;2022-11-20T09:14:09;4.63;;;4.13;;
15958;SDS011;8078;47.822;9.402;2022-11-20T09:16:34;5.53;;;4.80;;
15958;SDS011;8078;47.822;9.402;2022-11-20T09:19:00;8.73;;;4.60;;
15958;SDS011;8078;47.822;9.402;2022-11-20T09:21:25;6.30;;;5.40;;
15958;SDS011;8078;47.822;9.402;2022-11-20T09:23:51;7.10;;;4.50;;
15958;SDS011;8078;47.822;9.402;2022-11-20T09:26:16;5.93;;;4.70;;
15958;SDS011;8078;47.822;9.402;2022-11-20T09:28:42;5.93;;;4.63;;
15958;SDS011;8078;47.822;9.402;2022-11-20T09:31:08;6.07;;;5.47;;
15958;SDS011;8078;47.822;9.402;2022-11-20T09:33:39;7.07;;;5.10;;
15958;SDS011;8078;47.822;9.402;2022-11-20T09:36:04;7.90;;;4.80;;
15958;SDS011;8078;47.822;9.402;2022-11-20T09:38:30;5.60;;;4.80;;
15958;SDS011;8078;47.822;9.402;2022-11-20T09:41:05;5.67;;;5.17;;
15958;SDS011;8078;47.822;9.402;2022-11-20T09:48:35;6.73;;;4.70;;
15958;SDS011;8078;47.822;9.402;2022-11-20T09:51:21;5.53;;;4.93;;
15958;SDS011;8078;47.822;9.402;2022-11-20T09:54:15;5.37;;;4.60;;
15958;SDS011;8078;47.822;9.402;2022-11-20T09:56:50;6.40;;;4.90;;
15958;SDS011;8078;47.822;9.402;2022-11-20T09:59:31;4.63;;;4.10;;
15958;SDS011;8078;47.822;9.402;2022-11-20T10:02:02;5.23;;;3.67;;
15958;SDS011;8078;47.822;9.402;2022-11-20T10:04:55;5.37;;;4.87;;
15958;SDS011;8078;47.822;9.402;2022-11-20T10:07:37;7.50;;;5.43;;
15958;SDS011;8078;47.822;9.402;2022-11-20T10:10:19;5.10;;;4.63;;
15958;SDS011;8078;47.822;9.402;2022-11-20T10:18:23;5.17;;;4.57;;
15958;SDS011;8078;47.822;9.402;2022-11-20T10:20:57;5.43;;;4.27;;
15958;SDS011;8078;47.822;9.402;2022-11-20T10:26:49;5.00;;;4.43;;
15958;SDS011;8078;47.822;9.402;2022-11-20T10:29:32;4.03;;;3.60;;
15958;SDS011;8078;47.822;9.402;2022-11-20T10:32:01;6.30;;;3.77;;
15958;SDS011;8078;47.822;9.402;2022-11-20T10:37:09;4.20;;;3.53;;
15958;SDS011;8078;47.822;9.402;2022-11-20T10:39:40;4.57;;;3.70;;
15958;SDS011;8078;47.822;9.402;2022-11-20T10:42:26;3.60;;;3.30;;
15958;SDS011;8078;47.822;9.402;2022-11-20T10:45:26;4.30;;;3.90;;
15958;SDS011;8078;47.822;9.402;2022-11-20T10:48:16;4.33;;;3.40;;
15958;SDS011;8078;47.822;9.402;2022-11-20T10:50:52;5.20;;;3.30;;
15958;SDS011;8078;47.822;9.402;2022-11-20T11:01:57;3.97;;;3.67;;
15958;SDS011;8078;47.822;9.402;2022-11-20T11:04:28;4.87;;;3.13;;
15958;SDS011;8078;47.822;9.402;2022-11-20T11:09:52;3.83;;;3.53;;
15958;SDS011;8078;47.822;9.402;2022-11-20T11:12:24;5.33;;;3.40;;
15958;SDS011;8078;47.822;9.402;2022-11-20T11:14:54;4.10;;;3.53;;
15958;SDS011;8078;47.822;9.402;2022-11-20T11:17:22;4.00;;;3.60;;
15958;SDS011;8078;47.822;9.402;2022-11-20T11:22:42;3.73;;;3.40;;
15958;SDS011;8078;47.822;9.402;2022-11-20T11:25:17;4.47;;;3.40;;
15958;SDS011;8078;47.822;9.402;2022-11-20T11:27:52;5.13;;;3.43;;
15958;SDS011;8078;47.822;9.402;2022-11-20T11:30:20;4.87;;;3.83;;
15958;SDS011;8078;47.822;9.402;2022-11-20T11:32:46;4.00;;;3.27;;
15958;SDS011;8078;47.822;9.402;2022-11-20T11:35:25;3.57;;;3.27;;
15958;SDS011;8078;47.822;9.402;2022-11-20T11:38:06;4.63;;;3.47;;
15958;SDS011;8078;47.822;9.402;2022-11-20T11:40:37;3.50;;;3.20;;
15958;SDS011;8078;47.822;9.402;2022-11-20T11:43:05;5.77;;;3.80;;
15958;SDS011;8078;47.822;9.402;2022-11-20T11:46:01;5.40;;;4.10;;
15958;SDS011;8078;47.822;9.402;2022-11-20T11:48:29;4.40;;;3.50;;
15958;SDS011;8078;47.822;9.402;2022-11-20T11:50:54;6.00;;;3.77;;
15958;SDS011;8078;47.822;9.402;2022-11-20T11:53:21;3.80;;;3.40;;
15958;SDS011;8078;47.822;9.402;2022-11-20T11:55:57;3.70;;;3.40;;
15958;SDS011;8078;47.822;9.402;2022-11-20T11:58:41;5.57;;;3.50;;
15958;SDS011;8078;47.822;9.402;2022-11-20T12:04:10;3.73;;;3.43;;
15958;SDS011;8078;47.822;9.402;2022-11-20T12:06:45;4.67;;;4.00;;
15958;SDS011;8078;47.822;9.402;2022-11-20T12:09:15;3.47;;;3.10;;
15958;SDS011;8078;47.822;9.402;2022-11-20T12:11:55;5.80;;;3.33;;
15958;SDS011;8078;47.822;9.402;2022-11-20T12:14:34;3.50;;;3.20;;
15958;SDS011;8078;47.822;9.402;2022-11-20T12:17:00;5.23;;;3.10;;
15958;SDS011;8078;47.822;9.402;2022-11-20T12:19:27;3.97;;;3.40;;
15958;SDS011;8078;47.822;9.402;2022-11-20T12:27:04;3.20;;;2.90;;
15958;SDS011;8078;47.822;9.402;2022-11-20T12:38:31;3.70;;;3.40;;
15958;SDS011;8078;47.822;9.402;2022-11-20T12:50:15;3.30;;;3.00;;
15958;SDS011;8078;47.822;9.402;2022-11-20T12:56:18;4.10;;;3.17;;
15958;SDS011;8078;47.822;9.402;2022-11-20T13:04:28;4.23;;;2.90;;
15958;SDS011;8078;47.822;9.402;2022-11-20T13:07:03;3.97;;;3.57;;
15958;SDS011;8078;47.822;9.402;2022-11-20T13:09:35;4.10;;;3.70;;
15958;SDS011;8078;47.822;9.402;2022-11-20T13:15:18;4.17;;;3.20;;
15958;SDS011;8078;47.822;9.402;2022-11-20T13:18:00;2.90;;;2.50;;
15958;SDS011;8078;47.822;9.402;2022-11-20T13:20:27;3.13;;;2.60;;
15958;SDS011;8078;47.822;9.402;2022-11-20T13:22:55;5.33;;;3.17;;
15958;SDS011;8078;47.822;9.402;2022-11-20T13:25:31;2.93;;;2.63;;
15958;SDS011;8078;47.822;9.402;2022-11-20T13:27:59;2.63;;;2.43;;
15958;SDS011;8078;47.822;9.402;2022-11-20T13:30:29;3.67;;;2.60;;
15958;SDS011;8078;47.822;9.402;2022-11-20T13:33:04;2.57;;;2.37;;
15958;SDS011;8078;47.822;9.402;2022-11-20T13:38:13;2.57;;;2.30;;
15958;SDS011;8078;47.822;9.402;2022-11-20T13:40:52;3.13;;;2.60;;
15958;SDS011;8078;47.822;9.402;2022-11-20T13:46:00;4.63;;;2.73;;
15958;SDS011;8078;47.822;9.402;2022-11-20T13:48:29;4.13;;;2.63;;
15958;SDS011;8078;47.822;9.402;2022-11-20T13:51:12;3.27;;;2.50;;
15958;SDS011;8078;47.822;9.402;2022-11-20T13:53:52;3.63;;;2.50;;
15958;SDS011;8078;47.822;9.402;2022-11-20T14:02:01;2.30;;;2.10;;
15958;SDS011;8078;47.822;9.402;2022-11-20T14:04:33;2.67;;;2.10;;
15958;SDS011;8078;47.822;9.402;2022-11-20T14:07:01;2.60;;;2.30;;
15958;SDS011;8078;47.822;9.402;2022-11-20T14:09:31;2.83;;;2.10;;
15958;SDS011;8078;47.822;9.402;2022-11-20T14:11:57;4.87;;;1.97;;
15958;SDS011;8078;47.822;9.402;2022-11-20T14:14:24;2.13;;;2.03;;
15958;SDS011;8078;47.822;9.402;2022-11-20T14:16:52;3.27;;;2.13;;
15958;SDS011;8078;47.822;9.402;2022-11-20T14:24:38;5.43;;;2.10;;
15958;SDS011;8078;47.822;9.402;2022-11-20T14:27:04;4.10;;;2.37;;
15958;SDS011;8078;47.822;9.402;2022-11-20T14:29:36;4.57;;;2.00;;
15958;SDS011;8078;47.822;9.402;2022-11-20T14:32:03;3.10;;;2.20;;
15958;SDS011;8078;47.822;9.402;2022-11-20T14:34:30;2.83;;;2.30;;
15958;SDS011;8078;47.822;9.402;2022-11-20T14:37:01;3.87;;;2.37;;
15958;SDS011;8078;47.822;9.402;2022-11-20T14:39:34;2.87;;;2.50;;
15958;SDS011;8078;47.822;9.402;2022-11-20T14:42:02;2.43;;;2.13;;
15958;SDS011;8078;47.822;9.402;2022-11-20T14:44:38;3.37;;;2.20;;
15958;SDS011;8078;47.822;9.402;2022-11-20T14:47:04;1.87;;;1.77;;
15958;SDS011;8078;47.822;9.402;2022-11-20T14:49:30;3.63;;;2.40;;
15958;SDS011;8078;47.822;9.402;2022-11-20T14:52:01;3.07;;;1.97;;
15958;SDS011;8078;47.822;9.402;2022-11-20T14:54:43;2.30;;;2.07;;
15958;SDS011;8078;47.822;9.402;2022-11-20T14:57:18;3.10;;;2.80;;
15958;SDS011;8078;47.822;9.402;2022-11-20T14:59:46;3.53;;;2.20;;
15958;SDS011;8078;47.822;9.402;2022-11-20T15:02:12;3.07;;;2.30;;
15958;SDS011;8078;47.822;9.402;2022-11-20T15:04:56;2.53;;;2.13;;
15958;SDS011;8078;47.822;9.402;2022-11-20T15:07:28;4.30;;;2.50;;
15958;SDS011;8078;47.822;9.402;2022-11-20T15:12:31;5.60;;;2.40;;
15958;SDS011;8078;47.822;9.402;2022-11-20T15:14:58;2.63;;;1.83;;
15958;SDS011;8078;47.822;9.402;2022-11-20T15:17:26;3.33;;;2.20;;
15958;SDS011;8078;47.822;9.402;2022-11-20T15:19:52;3.47;;;2.20;;
15958;SDS011;8078;47.822;9.402;2022-11-20T15:22:18;4.07;;;2.20;;
15958;SDS011;8078;47.822;9.402;2022-11-20T15:24:44;4.67;;;2.33;;
15958;SDS011;8078;47.822;9.402;2022-11-20T15:27:10;3.37;;;2.20;;
15958;SDS011;8078;47.822;9.402;2022-11-20T15:29:35;5.30;;;2.50;;
15958;SDS011;8078;47.822;9.402;2022-11-20T15:32:01;2.83;;;2.30;;
15958;SDS011;8078;47.822;9.402;2022-11-20T15:34:27;2.90;;;2.67;;
15958;SDS011;8078;47.822;9.402;2022-11-20T15:36:53;3.70;;;2.60;;
15958;SDS011;8078;47.822;9.402;2022-11-20T15:39:19;3.67;;;2.47;;
15958;SDS011;8078;47.822;9.402;2022-11-20T15:41:45;2.50;;;2.30;;
15958;SDS011;8078;47.822;9.402;2022-11-20T15:44:11;3.83;;;2.47;;
15958;SDS011;8078;47.822;9.402;2022-11-20T15:46:37;4.53;;;2.73;;
15958;SDS011;8078;47.822;9.402;2022-11-20T15:49:10;2.93;;;2.40;;
15958;SDS011;8078;47.822;9.402;2022-11-20T15:51:43;3.53;;;2.60;;
15958;SDS011;8078;47.822;9.402;2022-11-20T15:54:12;2.63;;;2.43;;
15958;SDS011;8078;47.822;9.402;2022-11-20T15:56:39;3.40;;;2.10;;
15958;SDS011;8078;47.822;9.402;2022-11-20T15:59:04;2.33;;;2.13;;
15958;SDS011;8078;47.822;9.402;2022-11-20T16:01:30;4.80;;;2.87;;
15958;SDS011;8078;47.822;9.402;2022-11-20T16:03:55;2.73;;;2.53;;
15958;SDS011;8078;47.822;9.402;2022-11-20T16:06:21;2.83;;;2.43;;
15958;SDS011;8078;47.822;9.402;2022-11-20T16:08:46;5.40;;;2.50;;
15958;SDS011;8078;47.822;9.402;2022-11-20T16:11:13;3.13;;;2.57;;
15958;SDS011;8078;47.822;9.402;2022-11-20T16:13:40;2.40;;;2.20;;
15958;SDS011;8078;47.822;9.402;2022-11-20T16:16:25;4.33;;;2.67;;
15958;SDS011;8078;47.822;9.402;2022-11-20T16:18:55;2.90;;;2.60;;
15958;SDS011;8078;47.822;9.402;2022-11-20T16:21:20;3.37;;;3.00;;
15958;SDS011;8078;47.822;9.402;2022-11-20T16:23:52;3.80;;;2.40;;